sensor_id;sensor_type;location;lat;lon;timestamp;P1;durP1;ratioP1;P2;durP2;ratioP2
22614;SDS011;11474;50.790;0.298;2022-09-12T00:00:32;17.67;;;12.55;;
22614;SDS011;11474;50.790;0.298;2022-09-12T00:02:58;19.02;;;13.18;;
22614;SDS011;11474;50.790;0.298;2022-09-12T00:05:24;17.90;;;11.93;;
22614;SDS011;11474;50.790;0.298;2022-09-12T00:07:52;19.63;;;11.10;;
22614;SDS011;11474;50.790;0.298;2022-09-12T00:10:18;18.92;;;11.20;;
22614;SDS011;11474;50.790;0.298;2022-09-12T00:12:44;17.95;;;10.45;;
22614;SDS011;11474;50.790;0.298;2022-09-12T00:15:10;16.40;;;10.13;;
22614;SDS011;11474;50.790;0.298;2022-09-12T00:17:37;18.00;;;9.57;;
22614;SDS011;11474;50.790;0.298;2022-09-12T00:20:04;15.18;;;9.15;;
22614;SDS011;11474;50.790;0.298;2022-09-12T00:22:31;12.63;;;8.05;;
22614;SDS011;11474;50.790;0.298;2022-09-12T00:24:57;14.03;;;8.23;;
22614;SDS011;11474;50.790;0.298;2022-09-12T00:27:24;13.17;;;7.43;;
22614;SDS011;11474;50.790;0.298;2022-09-12T00:29:50;12.60;;;7.80;;
22614;SDS011;11474;50.790;0.298;2022-09-12T00:32:17;13.03;;;7.37;;
22614;SDS011;11474;50.790;0.298;2022-09-12T00:34:43;11.43;;;7.18;;
22614;SDS011;11474;50.790;0.298;2022-09-12T00:37:09;12.95;;;8.00;;
22614;SDS011;11474;50.790;0.298;2022-09-12T00:39:35;10.73;;;7.40;;
22614;SDS011;11474;50.790;0.298;2022-09-12T00:42:01;12.00;;;6.27;;
22614;SDS011;11474;50.790;0.298;2022-09-12T00:57:17;9.82;;;4.80;;
22614;SDS011;11474;50.790;0.298;2022-09-12T00:59:47;9.65;;;4.30;;
22614;SDS011;11474;50.790;0.298;2022-09-12T01:02:14;9.05;;;4.40;;
22614;SDS011;11474;50.790;0.298;2022-09-12T01:04:40;8.52;;;4.25;;
22614;SDS011;11474;50.790;0.298;2022-09-12T01:07:08;10.90;;;4.70;;
22614;SDS011;11474;50.790;0.298;2022-09-12T01:09:35;8.25;;;4.13;;
22614;SDS011;11474;50.790;0.298;2022-09-12T01:12:01;10.20;;;3.85;;
22614;SDS011;11474;50.790;0.298;2022-09-12T01:14:28;9.57;;;4.00;;
22614;SDS011;11474;50.790;0.298;2022-09-12T01:16:54;6.72;;;3.75;;
22614;SDS011;11474;50.790;0.298;2022-09-12T01:22:48;9.00;;;3.80;;
22614;SDS011;11474;50.790;0.298;2022-09-12T01:32:37;8.40;;;3.90;;
22614;SDS011;11474;50.790;0.298;2022-09-12T01:40:33;9.20;;;3.67;;
22614;SDS011;11474;50.790;0.298;2022-09-12T01:43:16;10.55;;;3.70;;
22614;SDS011;11474;50.790;0.298;2022-09-12T01:45:46;7.60;;;3.50;;
22614;SDS011;11474;50.790;0.298;2022-09-12T01:48:15;8.90;;;3.88;;
22614;SDS011;11474;50.790;0.298;2022-09-12T01:51:06;8.93;;;4.13;;
22614;SDS011;11474;50.790;0.298;2022-09-12T01:53:35;9.50;;;4.07;;
22614;SDS011;11474;50.790;0.298;2022-09-12T01:56:05;11.13;;;4.22;;
22614;SDS011;11474;50.790;0.298;2022-09-12T01:58:44;7.13;;;3.80;;
22614;SDS011;11474;50.790;0.298;2022-09-12T02:01:13;7.15;;;3.78;;
22614;SDS011;11474;50.790;0.298;2022-09-12T02:03:43;9.88;;;4.10;;
22614;SDS011;11474;50.790;0.298;2022-09-12T02:06:19;10.30;;;4.53;;
22614;SDS011;11474;50.790;0.298;2022-09-12T02:08:58;12.43;;;3.75;;
22614;SDS011;11474;50.790;0.298;2022-09-12T02:11:26;8.45;;;3.60;;
22614;SDS011;11474;50.790;0.298;2022-09-12T02:14:01;9.38;;;3.80;;
22614;SDS011;11474;50.790;0.298;2022-09-12T02:16:47;8.68;;;3.25;;
22614;SDS011;11474;50.790;0.298;2022-09-12T02:19:19;9.20;;;3.78;;
22614;SDS011;11474;50.790;0.298;2022-09-12T02:21:55;8.10;;;3.53;;
22614;SDS011;11474;50.790;0.298;2022-09-12T02:24:24;8.25;;;3.40;;
22614;SDS011;11474;50.790;0.298;2022-09-12T02:27:02;6.40;;;3.13;;
22614;SDS011;11474;50.790;0.298;2022-09-12T02:29:29;10.38;;;3.63;;
22614;SDS011;11474;50.790;0.298;2022-09-12T02:36:48;11.00;;;3.72;;
22614;SDS011;11474;50.790;0.298;2022-09-12T02:39:16;8.15;;;3.45;;
22614;SDS011;11474;50.790;0.298;2022-09-12T02:41:46;10.48;;;4.07;;
22614;SDS011;11474;50.790;0.298;2022-09-12T02:44:12;10.38;;;3.53;;
22614;SDS011;11474;50.790;0.298;2022-09-12T02:46:40;7.78;;;3.33;;
22614;SDS011;11474;50.790;0.298;2022-09-12T02:49:06;7.03;;;3.35;;
22614;SDS011;11474;50.790;0.298;2022-09-12T02:51:32;8.40;;;3.53;;
22614;SDS011;11474;50.790;0.298;2022-09-12T02:53:58;10.87;;;3.50;;
22614;SDS011;11474;50.790;0.298;2022-09-12T02:56:26;8.80;;;3.40;;
22614;SDS011;11474;50.790;0.298;2022-09-12T02:58:53;10.55;;;3.60;;
22614;SDS011;11474;50.790;0.298;2022-09-12T03:01:28;9.73;;;3.22;;
22614;SDS011;11474;50.790;0.298;2022-09-12T03:04:09;13.75;;;3.30;;
22614;SDS011;11474;50.790;0.298;2022-09-12T03:09:19;7.47;;;3.00;;
22614;SDS011;11474;50.790;0.298;2022-09-12T03:16:52;7.40;;;3.00;;
22614;SDS011;11474;50.790;0.298;2022-09-12T03:22:13;11.32;;;3.45;;
22614;SDS011;11474;50.790;0.298;2022-09-12T03:25:15;10.60;;;3.42;;
22614;SDS011;11474;50.790;0.298;2022-09-12T03:27:34;7.60;;;3.00;;
22614;SDS011;11474;50.790;0.298;2022-09-12T03:30:03;8.48;;;3.20;;
22614;SDS011;11474;50.790;0.298;2022-09-12T03:32:42;9.18;;;3.53;;
22614;SDS011;11474;50.790;0.298;2022-09-12T03:35:09;8.45;;;3.05;;
22614;SDS011;11474;50.790;0.298;2022-09-12T03:37:35;8.57;;;3.27;;
22614;SDS011;11474;50.790;0.298;2022-09-12T03:40:03;6.63;;;2.97;;
22614;SDS011;11474;50.790;0.298;2022-09-12T03:42:29;9.13;;;3.20;;
22614;SDS011;11474;50.790;0.298;2022-09-12T03:44:55;5.75;;;2.90;;
22614;SDS011;11474;50.790;0.298;2022-09-12T03:47:21;8.10;;;2.88;;
22614;SDS011;11474;50.790;0.298;2022-09-12T03:49:47;7.57;;;3.03;;
22614;SDS011;11474;50.790;0.298;2022-09-12T03:52:13;10.18;;;3.08;;
22614;SDS011;11474;50.790;0.298;2022-09-12T03:54:39;7.22;;;3.40;;
22614;SDS011;11474;50.790;0.298;2022-09-12T03:57:05;7.32;;;3.10;;
22614;SDS011;11474;50.790;0.298;2022-09-12T03:59:31;9.65;;;3.05;;
22614;SDS011;11474;50.790;0.298;2022-09-12T04:01:57;10.48;;;3.00;;
22614;SDS011;11474;50.790;0.298;2022-09-12T04:04:24;7.50;;;3.17;;
22614;SDS011;11474;50.790;0.298;2022-09-12T04:06:50;8.10;;;2.80;;
22614;SDS011;11474;50.790;0.298;2022-09-12T04:09:16;6.88;;;2.83;;
22614;SDS011;11474;50.790;0.298;2022-09-12T04:11:42;8.40;;;2.95;;
22614;SDS011;11474;50.790;0.298;2022-09-12T04:14:08;7.38;;;2.70;;
22614;SDS011;11474;50.790;0.298;2022-09-12T04:16:35;9.25;;;3.03;;
22614;SDS011;11474;50.790;0.298;2022-09-12T04:19:01;10.43;;;3.00;;
22614;SDS011;11474;50.790;0.298;2022-09-12T04:21:27;8.07;;;3.13;;
22614;SDS011;11474;50.790;0.298;2022-09-12T04:23:53;8.02;;;2.60;;
22614;SDS011;11474;50.790;0.298;2022-09-12T04:26:19;9.55;;;3.10;;
22614;SDS011;11474;50.790;0.298;2022-09-12T04:28:45;6.95;;;2.90;;
22614;SDS011;11474;50.790;0.298;2022-09-12T04:31:13;7.40;;;2.92;;
22614;SDS011;11474;50.790;0.298;2022-09-12T04:33:41;8.98;;;2.85;;
22614;SDS011;11474;50.790;0.298;2022-09-12T04:36:09;9.60;;;3.05;;
22614;SDS011;11474;50.790;0.298;2022-09-12T04:38:35;8.93;;;3.00;;
22614;SDS011;11474;50.790;0.298;2022-09-12T04:41:12;9.48;;;3.40;;
22614;SDS011;11474;50.790;0.298;2022-09-12T04:43:38;11.10;;;3.25;;
22614;SDS011;11474;50.790;0.298;2022-09-12T04:46:05;10.85;;;3.20;;
22614;SDS011;11474;50.790;0.298;2022-09-12T04:48:32;12.27;;;3.10;;
22614;SDS011;11474;50.790;0.298;2022-09-12T04:51:09;10.30;;;3.17;;
22614;SDS011;11474;50.790;0.298;2022-09-12T04:53:35;7.07;;;2.95;;
22614;SDS011;11474;50.790;0.298;2022-09-12T04:56:06;9.48;;;3.03;;
22614;SDS011;11474;50.790;0.298;2022-09-12T04:58:32;7.55;;;2.95;;
22614;SDS011;11474;50.790;0.298;2022-09-12T05:01:11;7.75;;;2.85;;
22614;SDS011;11474;50.790;0.298;2022-09-12T05:03:38;8.05;;;3.08;;
22614;SDS011;11474;50.790;0.298;2022-09-12T05:06:05;7.65;;;2.90;;
22614;SDS011;11474;50.790;0.298;2022-09-12T05:08:32;10.23;;;3.53;;
22614;SDS011;11474;50.790;0.298;2022-09-12T05:11:42;5.75;;;2.97;;
22614;SDS011;11474;50.790;0.298;2022-09-12T05:13:49;7.68;;;3.20;;
22614;SDS011;11474;50.790;0.298;2022-09-12T05:16:16;11.57;;;3.50;;
22614;SDS011;11474;50.790;0.298;2022-09-12T05:18:42;10.95;;;3.53;;
22614;SDS011;11474;50.790;0.298;2022-09-12T05:21:10;10.38;;;3.63;;
22614;SDS011;11474;50.790;0.298;2022-09-12T05:23:37;11.07;;;3.10;;
22614;SDS011;11474;50.790;0.298;2022-09-12T05:26:04;13.10;;;3.13;;
22614;SDS011;11474;50.790;0.298;2022-09-12T05:28:32;13.05;;;3.63;;
22614;SDS011;11474;50.790;0.298;2022-09-12T05:31:10;10.23;;;3.17;;
22614;SDS011;11474;50.790;0.298;2022-09-12T05:33:37;8.35;;;3.17;;
22614;SDS011;11474;50.790;0.298;2022-09-12T05:36:04;9.55;;;3.25;;
22614;SDS011;11474;50.790;0.298;2022-09-12T05:38:31;8.85;;;3.47;;
22614;SDS011;11474;50.790;0.298;2022-09-12T05:43:33;10.02;;;3.42;;
22614;SDS011;11474;50.790;0.298;2022-09-12T05:46:06;9.52;;;3.20;;
22614;SDS011;11474;50.790;0.298;2022-09-12T05:48:36;11.15;;;3.55;;
22614;SDS011;11474;50.790;0.298;2022-09-12T05:51:06;8.23;;;3.05;;
22614;SDS011;11474;50.790;0.298;2022-09-12T05:53:33;10.90;;;4.25;;
22614;SDS011;11474;50.790;0.298;2022-09-12T05:56:07;8.93;;;3.63;;
22614;SDS011;11474;50.790;0.298;2022-09-12T05:58:34;13.13;;;4.00;;
22614;SDS011;11474;50.790;0.298;2022-09-12T06:01:04;8.15;;;3.55;;
22614;SDS011;11474;50.790;0.298;2022-09-12T06:03:31;9.23;;;3.55;;
22614;SDS011;11474;50.790;0.298;2022-09-12T06:06:00;8.30;;;3.47;;
22614;SDS011;11474;50.790;0.298;2022-09-12T06:08:27;12.20;;;3.63;;
22614;SDS011;11474;50.790;0.298;2022-09-12T06:11:00;9.52;;;3.20;;
22614;SDS011;11474;50.790;0.298;2022-09-12T06:13:27;9.07;;;3.22;;
22614;SDS011;11474;50.790;0.298;2022-09-12T06:15:53;9.45;;;3.47;;
22614;SDS011;11474;50.790;0.298;2022-09-12T06:18:19;12.20;;;3.38;;
22614;SDS011;11474;50.790;0.298;2022-09-12T06:20:45;16.13;;;3.75;;
22614;SDS011;11474;50.790;0.298;2022-09-12T06:23:11;9.27;;;3.20;;
22614;SDS011;11474;50.790;0.298;2022-09-12T06:25:37;8.27;;;3.67;;
22614;SDS011;11474;50.790;0.298;2022-09-12T06:28:10;11.93;;;3.20;;
22614;SDS011;11474;50.790;0.298;2022-09-12T06:30:36;10.40;;;2.85;;
22614;SDS011;11474;50.790;0.298;2022-09-12T06:33:02;9.77;;;3.08;;
22614;SDS011;11474;50.790;0.298;2022-09-12T06:35:28;7.20;;;2.70;;
22614;SDS011;11474;50.790;0.298;2022-09-12T06:37:54;8.98;;;2.97;;
22614;SDS011;11474;50.790;0.298;2022-09-12T06:40:20;10.50;;;3.13;;
22614;SDS011;11474;50.790;0.298;2022-09-12T06:42:46;10.40;;;2.97;;
22614;SDS011;11474;50.790;0.298;2022-09-12T06:45:12;14.23;;;3.20;;
22614;SDS011;11474;50.790;0.298;2022-09-12T06:47:40;8.95;;;2.65;;
22614;SDS011;11474;50.790;0.298;2022-09-12T06:50:06;7.47;;;2.70;;
22614;SDS011;11474;50.790;0.298;2022-09-12T06:52:33;9.57;;;2.60;;
22614;SDS011;11474;50.790;0.298;2022-09-12T06:54:59;8.27;;;2.60;;
22614;SDS011;11474;50.790;0.298;2022-09-12T06:57:25;9.38;;;2.80;;
22614;SDS011;11474;50.790;0.298;2022-09-12T06:59:54;8.25;;;2.40;;
22614;SDS011;11474;50.790;0.298;2022-09-12T07:02:20;10.00;;;2.70;;
22614;SDS011;11474;50.790;0.298;2022-09-12T07:04:46;8.48;;;2.70;;
22614;SDS011;11474;50.790;0.298;2022-09-12T07:07:16;7.20;;;2.60;;
22614;SDS011;11474;50.790;0.298;2022-09-12T07:09:42;9.13;;;2.50;;
22614;SDS011;11474;50.790;0.298;2022-09-12T07:12:08;9.80;;;2.42;;
22614;SDS011;11474;50.790;0.298;2022-09-12T07:14:34;6.97;;;2.28;;
22614;SDS011;11474;50.790;0.298;2022-09-12T07:17:00;8.03;;;2.27;;
22614;SDS011;11474;50.790;0.298;2022-09-12T07:19:26;9.50;;;2.80;;
22614;SDS011;11474;50.790;0.298;2022-09-12T07:21:52;8.50;;;2.53;;
22614;SDS011;11474;50.790;0.298;2022-09-12T07:24:18;9.05;;;2.83;;
22614;SDS011;11474;50.790;0.298;2022-09-12T07:26:45;7.93;;;2.63;;
22614;SDS011;11474;50.790;0.298;2022-09-12T07:29:15;8.98;;;2.47;;
22614;SDS011;11474;50.790;0.298;2022-09-12T07:31:41;10.38;;;2.80;;
22614;SDS011;11474;50.790;0.298;2022-09-12T07:34:07;6.28;;;2.70;;
22614;SDS011;11474;50.790;0.298;2022-09-12T07:36:33;9.82;;;2.83;;
22614;SDS011;11474;50.790;0.298;2022-09-12T07:39:00;7.97;;;2.30;;
22614;SDS011;11474;50.790;0.298;2022-09-12T07:41:27;12.98;;;2.80;;
22614;SDS011;11474;50.790;0.298;2022-09-12T07:43:57;7.43;;;2.30;;
22614;SDS011;11474;50.790;0.298;2022-09-12T07:46:24;6.00;;;2.20;;
22614;SDS011;11474;50.790;0.298;2022-09-12T07:48:54;7.55;;;2.47;;
22614;SDS011;11474;50.790;0.298;2022-09-12T07:51:21;6.32;;;2.50;;
22614;SDS011;11474;50.790;0.298;2022-09-12T07:53:48;5.90;;;2.13;;
22614;SDS011;11474;50.790;0.298;2022-09-12T07:56:16;4.53;;;2.05;;
22614;SDS011;11474;50.790;0.298;2022-09-12T07:58:42;4.53;;;2.00;;
22614;SDS011;11474;50.790;0.298;2022-09-12T08:03:42;14.65;;;3.60;;
22614;SDS011;11474;50.790;0.298;2022-09-12T08:06:09;11.37;;;3.67;;
22614;SDS011;11474;50.790;0.298;2022-09-12T08:08:36;8.20;;;2.65;;
22614;SDS011;11474;50.790;0.298;2022-09-12T08:11:06;13.30;;;4.13;;
22614;SDS011;11474;50.790;0.298;2022-09-12T08:13:33;14.98;;;4.35;;
22614;SDS011;11474;50.790;0.298;2022-09-12T08:16:00;6.07;;;2.13;;
22614;SDS011;11474;50.790;0.298;2022-09-12T08:18:27;6.22;;;2.20;;
22614;SDS011;11474;50.790;0.298;2022-09-12T08:23:23;7.82;;;2.80;;
22614;SDS011;11474;50.790;0.298;2022-09-12T08:25:50;7.70;;;3.10;;
22614;SDS011;11474;50.790;0.298;2022-09-12T08:28:17;11.70;;;3.00;;
22614;SDS011;11474;50.790;0.298;2022-09-12T08:30:43;13.85;;;3.65;;
22614;SDS011;11474;50.790;0.298;2022-09-12T08:33:09;8.50;;;2.90;;
22614;SDS011;11474;50.790;0.298;2022-09-12T08:35:35;11.23;;;3.67;;
22614;SDS011;11474;50.790;0.298;2022-09-12T08:38:01;5.85;;;2.47;;
22614;SDS011;11474;50.790;0.298;2022-09-12T08:40:27;10.65;;;2.60;;
22614;SDS011;11474;50.790;0.298;2022-09-12T08:43:00;9.25;;;3.13;;
22614;SDS011;11474;50.790;0.298;2022-09-12T08:45:30;9.97;;;2.70;;
22614;SDS011;11474;50.790;0.298;2022-09-12T08:47:58;9.52;;;2.97;;
22614;SDS011;11474;50.790;0.298;2022-09-12T08:50:27;6.32;;;2.60;;
22614;SDS011;11474;50.790;0.298;2022-09-12T08:57:52;8.63;;;2.80;;
22614;SDS011;11474;50.790;0.298;2022-09-12T09:00:18;5.75;;;2.47;;
22614;SDS011;11474;50.790;0.298;2022-09-12T09:18:58;6.07;;;2.63;;
22614;SDS011;11474;50.790;0.298;2022-09-12T09:21:30;10.52;;;3.30;;
22614;SDS011;11474;50.790;0.298;2022-09-12T09:24:04;12.55;;;3.38;;
22614;SDS011;11474;50.790;0.298;2022-09-12T09:26:50;9.77;;;2.90;;
22614;SDS011;11474;50.790;0.298;2022-09-12T09:29:19;11.70;;;3.65;;
22614;SDS011;11474;50.790;0.298;2022-09-12T09:31:47;11.87;;;4.10;;
22614;SDS011;11474;50.790;0.298;2022-09-12T09:34:21;8.55;;;2.80;;
22614;SDS011;11474;50.790;0.298;2022-09-12T09:36:51;7.72;;;2.90;;
22614;SDS011;11474;50.790;0.298;2022-09-12T09:44:34;7.82;;;2.92;;
22614;SDS011;11474;50.790;0.298;2022-09-12T09:47:01;6.38;;;2.58;;
22614;SDS011;11474;50.790;0.298;2022-09-12T09:49:28;14.10;;;4.10;;
22614;SDS011;11474;50.790;0.298;2022-09-12T09:51:55;7.20;;;2.92;;
22614;SDS011;11474;50.790;0.298;2022-09-12T09:54:22;9.55;;;3.22;;
22614;SDS011;11474;50.790;0.298;2022-09-12T09:56:49;7.60;;;2.70;;
22614;SDS011;11474;50.790;0.298;2022-09-12T09:59:34;5.38;;;2.38;;
22614;SDS011;11474;50.790;0.298;2022-09-12T10:04:38;7.40;;;3.10;;
22614;SDS011;11474;50.790;0.298;2022-09-12T10:07:04;8.65;;;3.30;;
22614;SDS011;11474;50.790;0.298;2022-09-12T10:09:31;9.25;;;3.08;;
22614;SDS011;11474;50.790;0.298;2022-09-12T10:11:59;6.00;;;3.33;;
22614;SDS011;11474;50.790;0.298;2022-09-12T10:16:59;7.35;;;2.95;;
22614;SDS011;11474;50.790;0.298;2022-09-12T10:19:35;10.07;;;3.33;;
22614;SDS011;11474;50.790;0.298;2022-09-12T10:22:02;8.05;;;3.55;;
22614;SDS011;11474;50.790;0.298;2022-09-12T10:24:34;8.98;;;3.17;;
22614;SDS011;11474;50.790;0.298;2022-09-12T10:27:12;10.68;;;3.60;;
22614;SDS011;11474;50.790;0.298;2022-09-12T10:29:40;9.40;;;3.08;;
22614;SDS011;11474;50.790;0.298;2022-09-12T10:32:09;9.32;;;3.53;;
22614;SDS011;11474;50.790;0.298;2022-09-12T10:34:46;6.75;;;3.30;;
22614;SDS011;11474;50.790;0.298;2022-09-12T10:39:51;8.00;;;3.55;;
22614;SDS011;11474;50.790;0.298;2022-09-12T10:45:03;7.28;;;3.45;;
22614;SDS011;11474;50.790;0.298;2022-09-12T10:47:30;9.25;;;3.55;;
22614;SDS011;11474;50.790;0.298;2022-09-12T10:50:17;7.07;;;3.00;;
22614;SDS011;11474;50.790;0.298;2022-09-12T10:52:43;7.60;;;3.30;;
22614;SDS011;11474;50.790;0.298;2022-09-12T10:55:15;7.30;;;2.92;;
22614;SDS011;11474;50.790;0.298;2022-09-12T10:57:45;6.10;;;3.50;;
22614;SDS011;11474;50.790;0.298;2022-09-12T11:00:16;11.32;;;4.20;;
22614;SDS011;11474;50.790;0.298;2022-09-12T11:02:50;12.57;;;3.78;;
22614;SDS011;11474;50.790;0.298;2022-09-12T11:10:54;9.85;;;3.80;;
22614;SDS011;11474;50.790;0.298;2022-09-12T11:15:58;9.55;;;4.18;;
22614;SDS011;11474;50.790;0.298;2022-09-12T11:29:03;8.25;;;3.40;;
22614;SDS011;11474;50.790;0.298;2022-09-12T11:31:45;9.33;;;3.80;;
22614;SDS011;11474;50.790;0.298;2022-09-12T11:34:21;9.05;;;3.78;;
22614;SDS011;11474;50.790;0.298;2022-09-12T11:39:33;8.13;;;3.37;;
22614;SDS011;11474;50.790;0.298;2022-09-12T11:42:01;8.30;;;3.53;;
22614;SDS011;11474;50.790;0.298;2022-09-12T11:44:42;8.35;;;3.45;;
22614;SDS011;11474;50.790;0.298;2022-09-12T11:47:11;9.10;;;3.67;;
22614;SDS011;11474;50.790;0.298;2022-09-12T11:49:55;7.50;;;3.57;;
22614;SDS011;11474;50.790;0.298;2022-09-12T11:52:22;10.73;;;4.10;;
22614;SDS011;11474;50.790;0.298;2022-09-12T11:54:59;10.85;;;4.32;;
22614;SDS011;11474;50.790;0.298;2022-09-12T11:57:29;8.85;;;4.22;;
22614;SDS011;11474;50.790;0.298;2022-09-12T12:02:25;8.32;;;3.72;;
22614;SDS011;11474;50.790;0.298;2022-09-12T12:05:25;8.20;;;3.50;;
22614;SDS011;11474;50.790;0.298;2022-09-12T12:07:58;9.93;;;4.20;;
22614;SDS011;11474;50.790;0.298;2022-09-12T12:12:56;5.93;;;3.40;;
22614;SDS011;11474;50.790;0.298;2022-09-12T12:15:23;11.30;;;4.07;;
22614;SDS011;11474;50.790;0.298;2022-09-12T12:18:04;11.40;;;4.90;;
22614;SDS011;11474;50.790;0.298;2022-09-12T12:20:31;8.88;;;3.90;;
22614;SDS011;11474;50.790;0.298;2022-09-12T12:22:57;11.27;;;4.20;;
22614;SDS011;11474;50.790;0.298;2022-09-12T12:25:36;10.15;;;3.70;;
22614;SDS011;11474;50.790;0.298;2022-09-12T12:28:03;10.85;;;3.58;;
22614;SDS011;11474;50.790;0.298;2022-09-12T12:35:40;7.43;;;3.47;;
22614;SDS011;11474;50.790;0.298;2022-09-12T12:40:51;10.00;;;4.05;;
22614;SDS011;11474;50.790;0.298;2022-09-12T12:43:28;9.20;;;3.95;;
22614;SDS011;11474;50.790;0.298;2022-09-12T12:46:03;12.95;;;4.13;;
22614;SDS011;11474;50.790;0.298;2022-09-12T12:48:31;7.95;;;3.60;;
22614;SDS011;11474;50.790;0.298;2022-09-12T12:54:00;10.70;;;3.90;;
22614;SDS011;11474;50.790;0.298;2022-09-12T12:59:00;9.23;;;3.97;;
22614;SDS011;11474;50.790;0.298;2022-09-12T13:01:27;8.02;;;3.50;;
22614;SDS011;11474;50.790;0.298;2022-09-12T13:03:58;10.35;;;3.42;;
22614;SDS011;11474;50.790;0.298;2022-09-12T13:06:35;8.43;;;3.47;;
22614;SDS011;11474;50.790;0.298;2022-09-12T13:09:24;8.68;;;4.10;;
22614;SDS011;11474;50.790;0.298;2022-09-12T13:12:01;7.85;;;3.33;;
22614;SDS011;11474;50.790;0.298;2022-09-12T13:16:55;9.05;;;3.20;;
22614;SDS011;11474;50.790;0.298;2022-09-12T13:19:26;9.25;;;3.17;;
22614;SDS011;11474;50.790;0.298;2022-09-12T13:22:14;7.70;;;3.03;;
22614;SDS011;11474;50.790;0.298;2022-09-12T13:24:43;5.65;;;2.67;;
22614;SDS011;11474;50.790;0.298;2022-09-12T13:27:16;6.78;;;2.85;;
22614;SDS011;11474;50.790;0.298;2022-09-12T13:29:42;8.57;;;2.63;;
22614;SDS011;11474;50.790;0.298;2022-09-12T13:32:08;8.30;;;3.08;;
22614;SDS011;11474;50.790;0.298;2022-09-12T13:37:28;7.32;;;3.10;;
22614;SDS011;11474;50.790;0.298;2022-09-12T13:40:16;7.32;;;2.78;;
22614;SDS011;11474;50.790;0.298;2022-09-12T13:42:46;5.43;;;2.90;;
22614;SDS011;11474;50.790;0.298;2022-09-12T13:47:43;7.47;;;3.00;;
22614;SDS011;11474;50.790;0.298;2022-09-12T13:50:16;5.87;;;2.93;;
22614;SDS011;11474;50.790;0.298;2022-09-12T13:52:44;7.07;;;3.13;;
22614;SDS011;11474;50.790;0.298;2022-09-12T13:55:17;7.43;;;2.80;;
22614;SDS011;11474;50.790;0.298;2022-09-12T13:57:54;6.00;;;2.70;;
22614;SDS011;11474;50.790;0.298;2022-09-12T14:00:20;8.07;;;3.20;;
22614;SDS011;11474;50.790;0.298;2022-09-12T14:02:46;8.77;;;2.70;;
22614;SDS011;11474;50.790;0.298;2022-09-12T14:05:20;5.97;;;2.78;;
22614;SDS011;11474;50.790;0.298;2022-09-12T14:10:27;5.70;;;2.83;;
22614;SDS011;11474;50.790;0.298;2022-09-12T14:12:54;8.18;;;2.92;;
22614;SDS011;11474;50.790;0.298;2022-09-12T14:15:22;7.65;;;2.85;;
22614;SDS011;11474;50.790;0.298;2022-09-12T14:17:50;7.03;;;3.10;;
22614;SDS011;11474;50.790;0.298;2022-09-12T14:20:17;7.53;;;2.93;;
22614;SDS011;11474;50.790;0.298;2022-09-12T14:22:44;7.90;;;3.35;;
22614;SDS011;11474;50.790;0.298;2022-09-12T14:25:18;6.32;;;3.03;;
22614;SDS011;11474;50.790;0.298;2022-09-12T14:27:52;9.80;;;3.00;;
22614;SDS011;11474;50.790;0.298;2022-09-12T14:33:30;8.23;;;3.10;;
22614;SDS011;11474;50.790;0.298;2022-09-12T14:35:31;6.07;;;2.40;;
22614;SDS011;11474;50.790;0.298;2022-09-12T14:38:03;6.32;;;2.55;;
22614;SDS011;11474;50.790;0.298;2022-09-12T14:40:30;5.45;;;2.70;;
22614;SDS011;11474;50.790;0.298;2022-09-12T14:42:57;7.28;;;2.80;;
22614;SDS011;11474;50.790;0.298;2022-09-12T14:45:24;5.43;;;2.65;;
22614;SDS011;11474;50.790;0.298;2022-09-12T14:47:52;7.87;;;3.57;;
22614;SDS011;11474;50.790;0.298;2022-09-12T14:50:20;8.90;;;3.17;;
22614;SDS011;11474;50.790;0.298;2022-09-12T14:53:00;6.97;;;2.85;;
22614;SDS011;11474;50.790;0.298;2022-09-12T14:55:27;11.02;;;3.33;;
22614;SDS011;11474;50.790;0.298;2022-09-12T15:04:03;7.20;;;2.80;;
22614;SDS011;11474;50.790;0.298;2022-09-12T15:06:04;10.25;;;3.17;;
22614;SDS011;11474;50.790;0.298;2022-09-12T15:08:33;4.65;;;2.70;;
22614;SDS011;11474;50.790;0.298;2022-09-12T15:11:00;6.18;;;2.88;;
22614;SDS011;11474;50.790;0.298;2022-09-12T15:13:27;5.83;;;2.70;;
22614;SDS011;11474;50.790;0.298;2022-09-12T15:15:55;8.55;;;2.63;;
22614;SDS011;11474;50.790;0.298;2022-09-12T15:18:24;5.15;;;2.67;;
22614;SDS011;11474;50.790;0.298;2022-09-12T15:21:12;6.60;;;2.80;;
22614;SDS011;11474;50.790;0.298;2022-09-12T15:23:41;5.53;;;2.63;;
22614;SDS011;11474;50.790;0.298;2022-09-12T15:26:09;8.90;;;2.70;;
22614;SDS011;11474;50.790;0.298;2022-09-12T15:28:36;5.10;;;2.40;;
22614;SDS011;11474;50.790;0.298;2022-09-12T15:31:06;5.75;;;2.33;;
22614;SDS011;11474;50.790;0.298;2022-09-12T15:33:33;7.83;;;2.87;;
22614;SDS011;11474;50.790;0.298;2022-09-12T15:35:59;8.68;;;2.90;;
22614;SDS011;11474;50.790;0.298;2022-09-12T15:38:25;5.45;;;2.60;;
22614;SDS011;11474;50.790;0.298;2022-09-12T15:40:51;7.63;;;3.03;;
22614;SDS011;11474;50.790;0.298;2022-09-12T15:43:18;7.70;;;3.20;;
22614;SDS011;11474;50.790;0.298;2022-09-12T15:45:44;7.68;;;2.90;;
22614;SDS011;11474;50.790;0.298;2022-09-12T15:48:11;7.22;;;3.28;;
22614;SDS011;11474;50.790;0.298;2022-09-12T15:50:39;7.35;;;3.30;;
22614;SDS011;11474;50.790;0.298;2022-09-12T15:53:08;6.20;;;3.30;;
22614;SDS011;11474;50.790;0.298;2022-09-12T15:55:34;6.28;;;2.80;;
22614;SDS011;11474;50.790;0.298;2022-09-12T15:58:01;7.78;;;3.10;;
22614;SDS011;11474;50.790;0.298;2022-09-12T16:00:27;7.88;;;2.90;;
22614;SDS011;11474;50.790;0.298;2022-09-12T16:02:53;7.32;;;2.78;;
22614;SDS011;11474;50.790;0.298;2022-09-12T16:05:21;7.45;;;3.10;;
22614;SDS011;11474;50.790;0.298;2022-09-12T16:07:49;6.93;;;2.70;;
22614;SDS011;11474;50.790;0.298;2022-09-12T16:10:17;6.45;;;2.92;;
22614;SDS011;11474;50.790;0.298;2022-09-12T16:12:44;6.03;;;2.72;;
22614;SDS011;11474;50.790;0.298;2022-09-12T16:15:18;5.17;;;2.57;;
22614;SDS011;11474;50.790;0.298;2022-09-12T16:17:44;7.15;;;2.83;;
22614;SDS011;11474;50.790;0.298;2022-09-12T16:20:10;9.50;;;2.70;;
22614;SDS011;11474;50.790;0.298;2022-09-12T16:22:37;22.63;;;4.90;;
22614;SDS011;11474;50.790;0.298;2022-09-12T16:25:03;7.32;;;3.20;;
22614;SDS011;11474;50.790;0.298;2022-09-12T16:27:30;7.67;;;2.97;;
22614;SDS011;11474;50.790;0.298;2022-09-12T16:29:56;5.00;;;2.63;;
22614;SDS011;11474;50.790;0.298;2022-09-12T16:32:22;11.55;;;2.80;;
22614;SDS011;11474;50.790;0.298;2022-09-12T16:34:48;7.38;;;3.25;;
22614;SDS011;11474;50.790;0.298;2022-09-12T16:37:15;8.50;;;2.90;;
22614;SDS011;11474;50.790;0.298;2022-09-12T16:39:41;7.20;;;2.80;;
22614;SDS011;11474;50.790;0.298;2022-09-12T16:42:07;6.18;;;3.13;;
22614;SDS011;11474;50.790;0.298;2022-09-12T16:44:33;5.47;;;3.00;;
22614;SDS011;11474;50.790;0.298;2022-09-12T16:46:59;5.20;;;2.80;;
22614;SDS011;11474;50.790;0.298;2022-09-12T16:49:25;6.55;;;2.80;;
22614;SDS011;11474;50.790;0.298;2022-09-12T16:51:51;5.55;;;3.05;;
22614;SDS011;11474;50.790;0.298;2022-09-12T16:54:17;5.30;;;2.67;;
22614;SDS011;11474;50.790;0.298;2022-09-12T16:56:43;7.47;;;2.60;;
22614;SDS011;11474;50.790;0.298;2022-09-12T16:59:10;7.13;;;2.70;;
22614;SDS011;11474;50.790;0.298;2022-09-12T17:01:40;6.77;;;2.80;;
22614;SDS011;11474;50.790;0.298;2022-09-12T17:04:06;5.40;;;2.53;;
22614;SDS011;11474;50.790;0.298;2022-09-12T17:06:32;7.15;;;2.88;;
22614;SDS011;11474;50.790;0.298;2022-09-12T17:08:59;4.97;;;2.37;;
22614;SDS011;11474;50.790;0.298;2022-09-12T17:11:29;6.38;;;2.35;;
22614;SDS011;11474;50.790;0.298;2022-09-12T17:13:55;5.00;;;2.03;;
22614;SDS011;11474;50.790;0.298;2022-09-12T17:16:22;5.40;;;2.10;;
22614;SDS011;11474;50.790;0.298;2022-09-12T17:18:49;4.27;;;1.83;;
22614;SDS011;11474;50.790;0.298;2022-09-12T17:21:16;3.03;;;2.03;;